X  Chiuso Dati meteorologici dell'aviazione (METAR)     LEAL Alicante-Elche Miguel Hernández Airport
Temperatura
23°C Temperatura
19°C Punto di rugiada
78% Umidità



Vento
10 KM/O
6 MPH
3 M/S
5 KTS



70°
ENE
Condizioni attuali

Chiaro Chiaro
Pressione 1010.84 (hPa) - 29.85 (inHg)
Visibilità 6 (miglio) - 9.7 (km)
Aeroporto
Codice-Aeroporto LEAL

Posizione: Alicante-Elche Miguel Hernández Airport
Distanza: 60 (km)

Metar:
LEAL 252100Z 07005KT 040V100 CAVOK 23/19 Q1011 NOSIG

Ore: 25-06-2024 23:00 CEST